Kelowna, Canada
Current Conditions -  °F | °C
As of 12:27 AM on Saturday 29 Nov 2014 (Local Time) from CYLW Reporting Station
Light Snow Light Snow  
Wind Chill: -20°   Ceiling: 5500
Heat Index: -10°   Visibility: 9mi
Dew Point: -16°   Wind: 21mph
Humidity: 62%   Direction: 350°N
Pressure: 29.72"   Gusts: 28mph
Location:  49.89°N, 119.5°W
Report Text: CYLW 290827Z AUTO 35018G24KT 9SM -SN OVC055 M10/M16 A2972 RMK SLP091
Loading
Personal Weather Stations






























Interactive Weather Map New forecast layout! Learn more

10-Day Weather Forecast

Advertisements
Track Severe Weather on mobile